Terminal Aerodrome Forecast
Issued by NWS

Home | Current Version | Previous Version | Graphics & Text | Print | Product List | Glossary On
Versions: 1 2 3 4 5 6 7 8 9 10 11 12 13 14
000
FTUS43 KABR 271700
TAFMBG
TAF
KMBG 271724Z 2718/2818 35013G21KT P6SM OVC024
     FM272000 35015G21KT P6SM SCT024
     FM280200 02006KT P6SM SKC
     FM280600 06004KT P6SM SKC=

USA.gov is the U.S. government's official web portal to all federal, state and local government web resources and services.